Time;durP1;ratioP1;P1;durP2;ratioP2;P2;SDS_P1;SDS_P2;PMS_P1;PMS_P2;Temp;Humidity;BMP_temperature;BMP_pressure;BME280_temperature;BME280_humidity;BME280_pressure;Samples;Min_cycle;Max_cycle;Signal;HPM_P1;HPM_P2
2022/06/01 00:01:46;;;;;;;4.57;3.20;;;;;;;11.25;100.00;98812.69;5106501;28;20438;-77
2022/06/01 00:04:14;;;;;;;3.97;3.10;;;;;;;11.34;100.00;98809.38;5113113;28;20650;-78
2022/06/01 00:06:42;;;;;;;4.17;2.90;;;;;;;11.39;100.00;98808.09;5109343;28;20323;-78
2022/06/01 00:09:11;;;;;;;4.93;3.10;;;;;;;11.39;100.00;98820.50;5117610;28;20191;-78
2022/06/01 00:11:40;;;;;;;4.13;3.00;;;;;;;11.30;100.00;98851.19;5115087;28;20194;-78
2022/06/01 00:14:09;;;;;;;4.57;3.03;;;;;;;10.76;100.00;98901.78;5115471;28;20189;-78
2022/06/01 00:16:37;;;;;;;6.30;4.27;;;;;;;10.73;100.00;98882.63;5109127;28;20191;-78
2022/06/01 00:19:07;;;;;;;5.77;3.60;;;;;;;10.94;100.00;98897.03;5107282;28;20255;-78
2022/06/01 00:22:11;;;;;;;4.67;3.80;;;;;;;10.92;100.00;98906.06;5113062;28;20201;-78
2022/06/01 00:24:25;;;;;;;4.33;3.93;;;;;;;11.03;100.00;98893.75;5112939;28;20195;-78
2022/06/01 00:26:54;;;;;;;5.03;3.87;;;;;;;11.10;100.00;98880.91;5112847;28;20211;-78
2022/06/01 00:29:23;;;;;;;7.50;3.77;;;;;;;11.23;100.00;98871.13;5112827;28;20238;-79
2022/06/01 00:31:51;;;;;;;5.93;3.93;;;;;;;11.47;100.00;98861.38;5111174;28;20191;-79
2022/06/01 00:34:20;;;;;;;4.70;3.87;;;;;;;11.54;100.00;98859.16;5115390;28;20187;-78
2022/06/01 00:36:48;;;;;;;3.83;3.07;;;;;;;11.67;100.00;98851.13;5108859;28;20270;-79
2022/06/01 00:39:16;;;;;;;6.63;3.70;;;;;;;11.78;100.00;98843.25;5109751;28;20203;-79
2022/06/01 00:41:44;;;;;;;5.63;3.33;;;;;;;11.96;100.00;98838.38;5109992;28;20187;-79
2022/06/01 00:44:14;;;;;;;4.80;3.20;;;;;;;12.03;100.00;98836.97;5108092;28;20274;-79
2022/06/01 00:46:42;;;;;;;4.27;3.10;;;;;;;12.14;100.00;98831.69;5059479;28;20217;-79
2022/06/01 00:49:16;;;;;;;4.70;3.43;;;;;;;12.25;100.00;98828.22;5112772;28;20202;-79
2022/06/01 00:51:46;;;;;;;3.83;3.10;;;;;;;12.21;100.00;98818.81;5108647;28;20213;-79
2022/06/01 00:54:15;;;;;;;3.27;2.97;;;;;;;12.28;100.00;98815.59;5109883;28;20198;-79
2022/06/01 00:56:47;;;;;;;3.60;3.20;;;;;;;12.32;100.00;98811.72;5109753;28;20203;-79
2022/06/01 00:59:20;;;;;;;4.43;2.83;;;;;;;12.35;100.00;98813.28;5112749;28;20278;-79
2022/06/01 01:01:52;;;;;;;4.07;3.07;;;;;;;12.29;100.00;98814.63;5109299;28;20274;-79
2022/06/01 01:04:22;;;;;;;4.33;2.73;;;;;;;12.33;100.00;98823.19;5112978;28;20199;-78
2022/06/01 01:06:51;;;;;;;4.67;2.80;;;;;;;12.00;100.00;98814.16;5116200;28;20302;-79
2022/06/01 01:09:19;;;;;;;3.60;3.03;;;;;;;12.04;100.00;98820.94;5113410;28;20653;-78
2022/06/01 01:11:51;;;;;;;4.30;3.23;;;;;;;12.11;100.00;98823.13;5116038;28;20187;-79
2022/06/01 01:14:26;;;;;;;3.90;3.33;;;;;;;12.04;100.00;98818.28;5113547;28;20241;-79
2022/06/01 01:16:55;;;;;;;3.33;3.00;;;;;;;12.08;100.00;98813.59;5114806;28;20713;-79
2022/06/01 01:19:37;;;;;;;4.03;3.10;;;;;;;12.14;100.00;98807.81;5110120;28;20187;-79
2022/06/01 01:22:22;;;;;;;5.67;2.93;;;;;;;12.21;100.00;98802.88;5111255;28;20193;-79
2022/06/01 01:25:17;;;;;;;4.40;3.00;;;;;;;12.21;100.00;98792.25;5114802;28;20187;-79
2022/06/01 01:27:46;;;;;;;3.67;2.80;;;;;;;12.28;100.00;98796.16;5115863;28;20219;-79
2022/06/01 01:30:40;;;;;;;3.00;2.70;;;;;;;12.29;100.00;98781.91;5111536;28;20215;-78
2022/06/01 01:33:13;;;;;;;4.40;2.83;;;;;;;12.37;100.00;98774.19;5112949;28;20258;-79
2022/06/01 01:35:42;;;;;;;3.03;2.37;;;;;;;12.32;100.00;98779.84;5119132;27;20191;-78
2022/06/01 01:38:18;;;;;;;4.20;2.80;;;;;;;12.28;100.00;98780.22;5115385;28;20195;-79
2022/06/01 01:41:00;;;;;;;3.40;2.63;;;;;;;12.28;100.00;98780.22;5112900;28;20195;-80
2022/06/01 01:43:29;;;;;;;3.27;2.87;;;;;;;12.41;100.00;98769.47;5114122;28;20274;-79
2022/06/01 01:45:57;;;;;;;3.30;2.57;;;;;;;12.35;100.00;98764.63;5110670;28;20191;-79
2022/06/01 01:48:25;;;;;;;3.67;3.27;;;;;;;12.44;100.00;98762.09;5110754;28;20225;-78
2022/06/01 01:50:54;;;;;;;4.47;3.57;;;;;;;12.28;100.00;98756.31;5115562;28;20255;-79
2022/06/01 01:53:22;;;;;;;3.67;3.00;;;;;;;12.06;100.00;98749.13;5111896;28;20681;-79
2022/06/01 01:56:02;;;;;;;3.57;2.83;;;;;;;12.00;100.00;98753.13;5113646;28;20191;-78
2022/06/01 01:58:38;;;;;;;3.53;3.03;;;;;;;11.93;100.00;98745.75;5111552;28;20202;-78
2022/06/01 02:01:13;;;;;;;3.23;2.87;;;;;;;11.83;100.00;98747.41;5114274;28;20273;-77
2022/06/01 02:03:48;;;;;;;3.63;2.73;;;;;;;11.81;100.00;98750.19;5107424;28;20202;-78
2022/06/01 02:06:23;;;;;;;3.17;2.63;;;;;;;11.83;100.00;98753.56;5115527;28;20205;-78
2022/06/01 02:08:57;;;;;;;3.80;3.10;;;;;;;11.63;100.00;98757.69;5111058;28;20211;-78
2022/06/01 02:14:22;;;;;;;3.43;2.87;;;;;;;11.86;100.00;98763.09;5114732;28;20191;-80
2022/06/01 02:16:58;;;;;;;4.30;2.77;;;;;;;11.77;100.00;98772.53;5116245;28;20226;-79
2022/06/01 02:19:30;;;;;;;3.43;2.80;;;;;;;11.57;100.00;98792.59;5114488;28;20194;-79
2022/06/01 02:21:59;;;;;;;4.63;2.57;;;;;;;11.50;100.00;98835.63;5116401;28;20321;-79
2022/06/01 02:24:28;;;;;;;2.87;2.53;;;;;;;11.07;100.00;98860.75;5109176;28;20251;-79
2022/06/01 02:26:59;;;;;;;5.70;2.87;;;;;;;10.90;100.00;98845.19;5114809;28;20207;-79
2022/06/01 02:29:33;;;;;;;4.43;2.83;;;;;;;10.93;100.00;98844.16;5114434;28;20230;-79
2022/06/01 02:32:03;;;;;;;3.53;2.93;;;;;;;10.88;100.00;98840.00;5108629;28;20187;-79
2022/06/01 02:34:33;;;;;;;3.70;2.80;;;;;;;10.88;100.00;98820.59;5115653;27;20216;-79
2022/06/01 02:37:05;;;;;;;3.67;2.93;;;;;;;10.90;100.00;98813.38;5108608;28;20194;-79
2022/06/01 02:39:36;;;;;;;3.47;3.17;;;;;;;11.09;100.00;98804.97;5114524;28;20195;-79
2022/06/01 02:42:29;;;;;;;4.77;3.20;;;;;;;11.23;100.00;98811.94;5115775;27;20684;-79
2022/06/01 02:44:59;;;;;;;5.13;3.40;;;;;;;11.37;100.00;98801.19;5113087;28;20187;-80
2022/06/01 02:47:30;;;;;;;6.97;3.17;;;;;;;11.53;100.00;98793.81;5114351;28;20222;-79
2022/06/01 02:49:59;;;;;;;3.63;2.80;;;;;;;11.60;100.00;98784.44;5113233;28;20266;-79
2022/06/01 02:52:29;;;;;;;4.00;3.00;;;;;;;11.57;100.00;98778.50;5111238;28;20191;-79
2022/06/01 02:54:58;;;;;;;3.17;2.87;;;;;;;11.71;100.00;98779.19;5116570;27;20194;-79
2022/06/01 02:57:27;;;;;;;4.63;3.07;;;;;;;11.86;100.00;98769.22;5111416;28;20191;-79
2022/06/01 02:59:56;;;;;;;3.30;2.50;;;;;;;11.86;100.00;98761.28;5112757;28;20187;-79
2022/06/01 03:02:25;;;;;;;4.80;3.23;;;;;;;11.73;100.00;98763.97;5110458;28;20190;-79
2022/06/01 03:04:53;;;;;;;2.80;2.60;;;;;;;11.70;100.00;98777.47;5111086;28;20202;-79
2022/06/01 03:07:22;;;;;;;3.97;2.80;;;;;;;11.72;100.00;98794.13;5107452;28;20191;-79
2022/06/01 03:09:50;;;;;;;3.60;2.80;;;;;;;11.57;100.00;98818.28;5114057;28;20206;-79
2022/06/01 03:12:19;;;;;;;2.97;2.60;;;;;;;11.29;100.00;98856.56;5113793;28;20202;-80
2022/06/01 03:14:49;;;;;;;4.13;3.10;;;;;;;10.81;100.00;98889.09;5105971;28;20203;-79
2022/06/01 03:17:17;;;;;;;3.30;2.90;;;;;;;10.73;100.00;98864.09;5113954;27;20202;-79
2022/06/01 03:19:45;;;;;;;6.23;3.60;;;;;;;10.65;100.00;98839.94;5106818;28;20199;-79
2022/06/01 03:22:14;;;;;;;4.80;3.40;;;;;;;10.67;100.00;98830.06;5113902;28;20199;-79
2022/06/01 03:24:42;;;;;;;7.20;3.87;;;;;;;11.01;100.00;98821.44;5107794;28;20198;-79
2022/06/01 03:27:11;;;;;;;5.30;3.33;;;;;;;10.94;100.00;98829.94;5103508;28;20198;-79
2022/06/01 03:29:39;;;;;;;5.53;3.63;;;;;;;11.09;100.00;98821.72;5109543;28;20234;-79
2022/06/01 03:32:10;;;;;;;4.63;3.70;;;;;;;11.14;100.00;98826.72;5114137;28;20194;-79
2022/06/01 03:34:39;;;;;;;4.40;3.70;;;;;;;11.23;100.00;98825.22;5117711;28;20195;-79
2022/06/01 03:37:08;;;;;;;4.50;3.47;;;;;;;11.06;100.00;98824.59;5110676;28;20214;-79
2022/06/01 03:39:36;;;;;;;4.87;3.80;;;;;;;11.13;100.00;98822.38;5113570;28;20195;-79
2022/06/01 03:42:05;;;;;;;7.27;4.23;;;;;;;11.16;100.00;98819.50;5110655;28;20609;-80
2022/06/01 03:47:20;;;;;;;6.60;3.70;;;;;;;11.22;100.00;98808.47;5112951;28;20203;-79
2022/06/01 03:49:49;;;;;;;4.17;3.50;;;;;;;11.22;100.00;98807.63;5110217;28;20207;-79
2022/06/01 03:52:17;;;;;;;4.37;3.47;;;;;;;11.22;100.00;98813.75;5112985;28;20195;-79
2022/06/01 03:54:46;;;;;;;3.63;3.33;;;;;;;11.26;100.00;98806.41;5112854;28;20244;-79
2022/06/01 03:57:15;;;;;;;3.97;3.40;;;;;;;11.27;100.00;98813.41;5112659;28;20202;-79
2022/06/01 03:59:43;;;;;;;3.97;3.13;;;;;;;11.21;100.00;98814.72;5110065;28;20199;-79
2022/06/01 04:02:11;;;;;;;4.87;3.43;;;;;;;11.20;100.00;98810.38;5113626;28;20209;-79
2022/06/01 04:04:41;;;;;;;4.73;3.50;;;;;;;11.23;100.00;98817.25;5114678;28;20278;-79
2022/06/01 04:07:10;;;;;;;4.07;3.50;;;;;;;11.11;100.00;98808.38;5113413;28;20638;-79
2022/06/01 04:09:38;;;;;;;6.27;3.90;;;;;;;11.11;100.00;98822.50;5115642;28;20301;-79
2022/06/01 04:12:07;;;;;;;5.60;3.90;;;;;;;11.03;100.00;98832.78;5110140;28;20203;-79
2022/06/01 04:14:35;;;;;;;3.97;3.33;;;;;;;10.91;100.00;98846.91;5110648;28;20581;-78
2022/06/01 04:17:04;;;;;;;4.00;3.40;;;;;;;10.75;100.00;98844.47;5113377;28;20183;-79
2022/06/01 04:19:32;;;;;;;4.40;3.87;;;;;;;10.85;100.00;98836.72;5108195;28;20665;-79
2022/06/01 04:22:03;;;;;;;4.70;3.20;;;;;;;10.88;100.00;98836.50;5115430;28;20203;-79
2022/06/01 04:24:34;;;;;;;5.87;3.43;;;;;;;11.00;100.00;98829.47;5113024;28;20202;-79
2022/06/01 04:27:03;;;;;;;4.97;3.50;;;;;;;10.98;100.00;98826.09;5077308;28;20194;-78
2022/06/01 04:29:31;;;;;;;4.13;3.50;;;;;;;10.76;100.00;98842.66;5105811;28;20227;-79
2022/06/01 04:32:03;;;;;;;4.53;3.50;;;;;;;10.68;100.00;98866.19;5111539;28;20194;-79
2022/06/01 04:34:32;;;;;;;5.53;3.63;;;;;;;10.51;100.00;98859.41;5110140;28;20198;-79
2022/06/01 04:37:00;;;;;;;5.20;3.97;;;;;;;10.48;100.00;98867.56;5110467;28;20210;-79
2022/06/01 04:39:30;;;;;;;5.90;4.00;;;;;;;10.65;100.00;98882.31;5116681;28;20202;-79
2022/06/01 04:41:58;;;;;;;4.70;4.23;;;;;;;10.80;100.00;98889.16;5109048;28;20209;-79
2022/06/01 04:44:26;;;;;;;6.13;4.40;;;;;;;10.72;100.00;98894.19;5116329;28;20197;-79
2022/06/01 04:46:55;;;;;;;6.03;4.30;;;;;;;10.67;100.00;98899.78;5110938;28;20230;-78
2022/06/01 04:49:23;;;;;;;6.93;4.30;;;;;;;10.77;100.00;98905.28;5116576;28;20413;-78
2022/06/01 04:51:51;;;;;;;8.07;4.30;;;;;;;10.76;100.00;98903.59;5110912;28;20203;-78
2022/06/01 04:54:19;;;;;;;5.47;4.60;;;;;;;10.71;100.00;98900.41;5111126;28;20194;-78
2022/06/01 04:56:49;;;;;;;6.07;4.60;;;;;;;10.68;100.00;98898.81;5113480;28;20195;-78
2022/06/01 04:59:17;;;;;;;6.73;5.33;;;;;;;10.39;100.00;98898.16;5116377;28;20191;-78
2022/06/01 05:01:46;;;;;;;8.03;4.67;;;;;;;10.75;100.00;98897.44;5110387;28;20736;-78
2022/06/01 05:04:15;;;;;;;6.20;5.40;;;;;;;10.99;100.00;98899.34;5116228;28;20191;-79
2022/06/01 05:06:43;;;;;;;7.53;4.93;;;;;;;11.00;100.00;98898.38;5116018;28;20202;-78
2022/06/01 05:09:12;;;;;;;8.10;4.70;;;;;;;11.28;100.00;98889.34;5116077;28;20217;-78
2022/06/01 05:11:41;;;;;;;6.43;4.80;;;;;;;11.45;100.00;98891.63;5117917;27;20638;-78
2022/06/01 05:14:10;;;;;;;6.20;4.90;;;;;;;11.50;100.00;98891.31;5113240;28;20203;-79
2022/06/01 05:16:39;;;;;;;5.93;4.83;;;;;;;11.64;100.00;98880.53;5114816;28;20638;-78
2022/06/01 05:19:08;;;;;;;9.23;5.03;;;;;;;11.60;100.00;98885.25;5116244;28;20197;-78
2022/06/01 05:21:36;;;;;;;6.17;4.33;;;;;;;11.71;100.00;98885.31;5113787;28;20224;-78
2022/06/01 05:24:05;;;;;;;6.50;4.73;;;;;;;11.61;100.00;98892.22;5113112;28;20202;-78
2022/06/01 05:26:33;;;;;;;5.83;4.40;;;;;;;11.57;100.00;98885.44;5111070;28;20195;-78
2022/06/01 05:29:01;;;;;;;7.23;4.60;;;;;;;11.74;100.00;98892.19;5112417;28;20211;-78
2022/06/01 05:31:31;;;;;;;8.47;4.93;;;;;;;11.91;100.00;98891.84;5114957;27;20183;-78
2022/06/01 05:34:00;;;;;;;5.70;4.63;;;;;;;12.02;100.00;98880.41;5113084;28;20202;-78
2022/06/01 05:36:29;;;;;;;4.90;4.40;;;;;;;12.04;100.00;98881.13;5112901;28;20189;-78
2022/06/01 05:38:57;;;;;;;5.97;4.50;;;;;;;12.04;100.00;98876.69;5109888;28;20206;-78
2022/06/01 05:41:26;;;;;;;5.73;4.23;;;;;;;12.16;100.00;98871.41;5113097;28;20195;-78
2022/06/01 05:43:55;;;;;;;5.40;3.93;;;;;;;12.28;100.00;98867.84;5117676;27;20618;-78
2022/06/01 05:46:24;;;;;;;5.03;4.13;;;;;;;12.34;100.00;98878.00;5111594;28;20203;-78
2022/06/01 05:48:53;;;;;;;5.07;3.80;;;;;;;12.44;100.00;98867.50;5115581;27;20274;-78
2022/06/01 05:51:23;;;;;;;4.40;3.60;;;;;;;12.64;100.00;98865.97;5111439;28;20187;-78
2022/06/01 05:53:51;;;;;;;4.83;3.77;;;;;;;12.68;100.00;98864.78;5115572;28;20191;-78
2022/06/01 05:56:20;;;;;;;4.77;3.90;;;;;;;12.85;100.00;98867.84;5115293;28;20207;-79
2022/06/01 05:58:50;;;;;;;4.47;3.57;;;;;;;12.94;100.00;98865.44;5112292;28;20195;-79
2022/06/01 06:01:21;;;;;;;5.87;4.23;;;;;;;12.87;100.00;98859.75;5109684;28;20670;-79
2022/06/01 06:03:50;;;;;;;4.23;3.80;;;;;;;13.22;100.00;98864.97;5110740;28;20253;-78
2022/06/01 06:06:20;;;;;;;5.13;3.93;;;;;;;13.35;100.00;98870.16;5115791;27;20421;-78
2022/06/01 06:08:51;;;;;;;6.23;3.87;;;;;;;13.34;100.00;98863.16;5115214;28;20191;-79
2022/06/01 06:11:24;;;;;;;5.37;3.67;;;;;;;13.37;100.00;98868.22;5115091;28;20272;-78
2022/06/01 06:13:54;;;;;;;5.27;3.80;;;;;;;13.39;100.00;98872.44;5115037;28;20198;-78
2022/06/01 06:16:22;;;;;;;4.63;3.93;;;;;;;13.26;100.00;98870.88;5109708;28;20203;-78
2022/06/01 06:18:51;;;;;;;3.73;3.33;;;;;;;13.40;100.00;98873.28;5117159;27;20277;-78
2022/06/01 06:21:20;;;;;;;4.10;3.70;;;;;;;13.25;100.00;98862.06;5106451;28;20203;-78
2022/06/01 06:23:49;;;;;;;5.60;4.17;;;;;;;13.32;100.00;98875.75;5112937;28;20206;-78
2022/06/01 06:26:17;;;;;;;5.80;3.80;;;;;;;13.02;100.00;98877.13;5107219;28;20660;-79
2022/06/01 06:28:45;;;;;;;11.13;4.30;;;;;;;13.32;100.00;98876.56;5105183;28;20214;-79
2022/06/01 06:31:14;;;;;;;4.63;4.03;;;;;;;13.08;100.00;98870.50;5112928;28;20234;-78
2022/06/01 06:33:42;;;;;;;5.83;3.73;;;;;;;13.18;100.00;98879.44;5105409;28;20210;-78
2022/06/01 06:36:13;;;;;;;5.33;3.90;;;;;;;13.39;100.00;98880.41;5111433;28;20646;-78
2022/06/01 06:38:43;;;;;;;6.90;3.83;;;;;;;13.29;100.00;98870.63;5110698;28;20194;-78
2022/06/01 06:41:12;;;;;;;5.40;4.00;;;;;;;13.62;100.00;98877.75;5110342;28;20281;-78
2022/06/01 06:43:41;;;;;;;6.83;3.93;;;;;;;13.49;100.00;98869.88;5109706;28;20206;-78
2022/06/01 06:46:12;;;;;;;4.47;3.77;;;;;;;13.55;100.00;98864.06;5113886;28;20214;-78
2022/06/01 06:48:41;;;;;;;5.07;3.50;;;;;;;13.68;100.00;98861.25;5114226;28;20183;-78
2022/06/01 06:51:10;;;;;;;4.33;3.90;;;;;;;13.09;100.00;98875.69;5114366;28;20215;-78
2022/06/01 06:53:38;;;;;;;4.67;4.00;;;;;;;13.31;100.00;98874.00;5109246;28;20259;-79
2022/06/01 06:56:08;;;;;;;6.27;4.30;;;;;;;13.41;100.00;98874.97;5118878;27;20245;-79
2022/06/01 06:58:37;;;;;;;4.40;4.00;;;;;;;13.82;100.00;98881.44;5121064;28;20274;-78
2022/06/01 07:01:06;;;;;;;7.23;3.53;;;;;;;13.65;100.00;98867.69;5113635;28;20207;-78
2022/06/01 07:03:34;;;;;;;7.67;4.17;;;;;;;13.38;100.00;98868.09;5108505;28;20206;-78
2022/06/01 07:06:17;;;;;;;4.40;3.30;;;;;;;13.67;100.00;98871.06;5114381;27;20289;-78
2022/06/01 07:08:48;;;;;;;5.33;3.63;;;;;;;13.87;100.00;98868.59;5114869;27;20199;-78
2022/06/01 07:11:21;;;;;;;4.73;3.43;;;;;;;14.09;100.00;98859.66;5110744;28;20226;-78
2022/06/01 07:13:51;;;;;;;5.70;3.60;;;;;;;14.04;100.00;98865.38;5110675;28;20199;-79
2022/06/01 07:16:22;;;;;;;4.17;3.13;;;;;;;14.33;100.00;98874.44;5109434;28;20206;-79
2022/06/01 07:18:52;;;;;;;5.50;3.10;;;;;;;14.40;100.00;98864.13;5113807;28;20219;-79
2022/06/01 07:21:22;;;;;;;5.47;2.97;;;;;;;14.56;100.00;98875.19;5112709;28;20217;-78
2022/06/01 07:23:51;;;;;;;3.77;3.23;;;;;;;13.74;100.00;98868.75;5113941;28;20191;-78
2022/06/01 07:26:23;;;;;;;6.17;3.50;;;;;;;13.94;100.00;98870.63;5113834;28;20198;-79
2022/06/01 07:28:51;;;;;;;4.00;3.53;;;;;;;14.04;100.00;98874.22;5113510;28;20195;-79
2022/06/01 07:31:20;;;;;;;4.87;3.50;;;;;;;14.14;100.00;98871.63;5115605;27;20226;-78
2022/06/01 07:33:48;;;;;;;5.33;3.67;;;;;;;13.99;100.00;98872.88;5105964;28;20195;-78
2022/06/01 07:36:18;;;;;;;4.87;3.40;;;;;;;14.32;100.00;98862.09;5112276;28;20199;-79
2022/06/01 07:44:40;;;;;;;5.73;3.73;;;;;;;14.17;100.00;98865.19;5111513;28;20587;-78
2022/06/01 07:47:10;;;;;;;4.67;3.73;;;;;;;14.28;100.00;98870.47;5113644;28;20274;-78
2022/06/01 07:49:58;;;;;;;5.03;3.80;;;;;;;14.60;100.00;98865.97;5113102;28;20199;-78
2022/06/01 07:52:46;;;;;;;4.30;3.50;;;;;;;14.48;100.00;98859.03;5113084;28;20195;-78
2022/06/01 07:55:14;;;;;;;5.50;4.00;;;;;;;14.44;100.00;98868.22;5113672;28;20198;-78
2022/06/01 07:57:44;;;;;;;5.30;3.50;;;;;;;14.85;100.00;98864.69;5114749;28;20183;-78
2022/06/01 08:00:13;;;;;;;4.47;3.33;;;;;;;14.92;100.00;98862.34;5112185;28;20199;-78
2022/06/01 08:02:41;;;;;;;5.53;3.10;;;;;;;15.19;100.00;98861.78;5108324;28;20183;-78
2022/06/01 08:05:13;;;;;;;5.37;2.60;;;;;;;15.51;100.00;98856.25;5113358;28;20195;-78
2022/06/01 08:07:41;;;;;;;4.30;3.27;;;;;;;15.72;100.00;98849.00;5113940;28;20187;-79
2022/06/01 08:10:10;;;;;;;2.70;2.50;;;;;;;15.78;100.00;98860.13;5104703;28;20198;-78
2022/06/01 08:15:26;;;;;;;7.40;2.70;;;;;;;15.99;100.00;98851.00;5116466;27;20195;-79
2022/06/01 08:17:54;;;;;;;3.97;2.47;;;;;;;16.30;100.00;98843.69;5110180;28;20201;-79
2022/06/01 08:20:22;;;;;;;4.60;2.60;;;;;;;16.20;100.00;98853.53;5113042;28;20282;-78
2022/06/01 08:22:52;;;;;;;4.03;2.50;;;;;;;15.79;100.00;98859.16;5115840;28;20195;-78
2022/06/01 08:25:22;;;;;;;3.73;1.90;;;;;;;15.99;100.00;98856.34;5111104;28;20198;-79
2022/06/01 08:27:50;;;;;;;2.93;1.40;;;;;;;16.13;100.00;98846.25;5116673;28;20196;-78
2022/06/01 08:30:21;;;;;;;5.03;1.70;;;;;;;16.35;100.00;98848.63;5105987;28;20223;-78
2022/06/01 08:32:52;;;;;;;3.73;1.53;;;;;;;16.65;100.00;98852.09;5113439;28;20210;-78
2022/06/01 08:35:29;;;;;;;2.47;1.60;;;;;;;16.58;100.00;98851.81;5117047;28;20194;-78
2022/06/01 08:37:58;;;;;;;2.13;1.60;;;;;;;16.59;100.00;98857.00;5119799;27;20195;-78
2022/06/01 08:40:30;;;;;;;4.60;1.43;;;;;;;16.70;100.00;98849.88;5117585;27;20201;-78
2022/06/01 08:43:02;;;;;;;2.17;1.27;;;;;;;16.56;100.00;98854.63;5112480;28;20198;-78
2022/06/01 08:45:31;;;;;;;3.00;1.37;;;;;;;16.71;100.00;98857.75;5110025;28;20199;-78
2022/06/01 08:48:08;;;;;;;1.50;1.40;;;;;;;16.82;100.00;98849.53;5116839;28;20278;-78
2022/06/01 08:50:38;;;;;;;3.93;1.60;;;;;;;16.68;100.00;98857.13;5116731;28;20197;-78
2022/06/01 08:53:09;;;;;;;2.33;1.70;;;;;;;16.54;100.00;98856.63;5109813;28;20241;-78
2022/06/01 08:55:46;;;;;;;2.23;1.53;;;;;;;16.45;100.00;98851.28;5113620;28;20230;-78
2022/06/01 08:58:19;;;;;;;2.17;1.80;;;;;;;16.74;100.00;98854.78;5106825;28;20222;-78
2022/06/01 09:00:56;;;;;;;2.03;1.50;;;;;;;16.92;100.00;98852.19;5107300;28;20219;-78
2022/06/01 09:03:32;;;;;;;2.67;1.50;;;;;;;17.10;100.00;98860.31;5115910;28;20183;-78
2022/06/01 09:06:10;;;;;;;4.03;1.60;;;;;;;17.04;100.00;98863.56;5112976;28;20305;-78
2022/06/01 09:08:48;;;;;;;2.03;1.53;;;;;;;17.09;100.00;98867.50;5115593;28;20187;-79
2022/06/01 09:11:19;;;;;;;2.80;1.27;;;;;;;16.88;100.00;98869.50;5118055;27;20225;-78
2022/06/01 09:13:57;;;;;;;1.93;1.30;;;;;;;17.33;100.00;98868.78;5115134;28;20277;-79
2022/06/01 09:16:31;;;;;;;3.43;1.73;;;;;;;17.07;100.00;98871.28;5114143;28;20194;-78
2022/06/01 09:19:03;;;;;;;3.00;1.47;;;;;;;16.74;100.00;98867.31;5113487;28;20214;-78
2022/06/01 09:24:24;;;;;;;1.67;1.47;;;;;;;17.43;100.00;98874.94;5115448;28;20194;-78
2022/06/01 09:26:56;;;;;;;1.83;1.20;;;;;;;17.78;100.00;98873.38;5116350;28;20190;-78
2022/06/01 09:29:27;;;;;;;2.20;1.80;;;;;;;17.35;100.00;98873.00;5114898;28;20279;-78
2022/06/01 09:32:01;;;;;;;1.73;1.30;;;;;;;16.83;100.00;98869.13;5113396;28;20299;-78
2022/06/01 09:34:39;;;;;;;2.33;1.30;;;;;;;17.31;100.00;98887.69;5115977;28;20187;-79
2022/06/01 09:37:14;;;;;;;1.80;1.10;;;;;;;16.82;100.00;98868.28;5115815;28;20277;-77
2022/06/01 09:39:51;;;;;;;1.43;1.17;;;;;;;17.54;100.00;98864.03;5112221;28;20194;-78
2022/06/01 09:42:25;;;;;;;2.07;1.33;;;;;;;17.52;98.18;98875.88;5110579;28;20206;-78
2022/06/01 09:44:58;;;;;;;1.37;0.90;;;;;;;17.66;92.66;98868.19;5089635;28;20257;-78
2022/06/01 09:47:39;;;;;;;1.57;0.90;;;;;;;17.83;88.25;98865.72;5101496;28;20188;-78
2022/06/01 09:50:24;;;;;;;1.40;0.97;;;;;;;17.20;93.68;98876.31;5107425;28;20210;-78
2022/06/01 09:52:59;;;;;;;2.47;1.10;;;;;;;17.31;98.18;98865.44;5052658;28;20221;-78
2022/06/01 09:55:30;;;;;;;3.13;1.20;;;;;;;17.07;99.33;98863.25;5046974;28;20220;-78
2022/06/01 09:58:04;;;;;;;2.03;1.20;;;;;;;17.65;96.66;98860.28;5052188;28;20200;-78
2022/06/01 10:06:18;;;;;;;2.63;1.30;;;;;;;17.02;96.55;98871.72;5049872;28;20217;-78
2022/06/01 10:08:58;;;;;;;1.80;1.20;;;;;;;17.81;92.62;98871.22;5045247;28;20196;-78
2022/06/01 10:11:33;;;;;;;1.10;1.00;;;;;;;17.71;83.16;98873.13;5092586;28;20211;-78
2022/06/01 10:14:23;;;;;;;1.87;1.00;;;;;;;17.52;79.62;98882.09;5110836;28;20212;-78
2022/06/01 10:17:24;;;;;;;2.53;1.40;;;;;;;18.64;84.41;98865.63;5110910;28;20650;-78
2022/06/01 10:19:59;;;;;;;1.10;0.90;;;;;;;17.84;82.09;98865.56;5092557;28;20192;-78
2022/06/01 10:22:35;;;;;;;5.47;1.40;;;;;;;18.33;85.74;98870.53;5106865;28;20209;-78
2022/06/01 10:25:11;;;;;;;2.40;1.17;;;;;;;18.54;82.01;98866.56;5114885;27;20199;-78
2022/06/01 10:27:43;;;;;;;3.03;1.23;;;;;;;19.06;83.93;98865.75;5114729;28;20199;-78
2022/06/01 10:30:18;;;;;;;2.93;1.20;;;;;;;18.54;76.09;98879.97;5113742;28;20225;-78
2022/06/01 10:32:54;;;;;;;1.37;1.00;;;;;;;18.67;75.93;98876.91;5114757;28;20223;-78
2022/06/01 10:35:33;;;;;;;2.17;1.00;;;;;;;18.55;75.06;98864.72;5113425;28;20633;-78
2022/06/01 10:38:10;;;;;;;0.80;0.80;;;;;;;18.35;68.87;98865.88;5114551;28;20187;-80
2022/06/01 10:40:43;;;;;;;2.60;0.90;;;;;;;18.78;66.11;98876.63;5107894;28;20202;-78
2022/06/01 10:43:26;;;;;;;2.47;0.77;;;;;;;18.51;66.74;98872.22;5114521;28;20186;-79
2022/06/01 10:46:01;;;;;;;1.73;0.87;;;;;;;19.31;70.45;98870.25;5113279;28;20191;-78
2022/06/01 10:48:32;;;;;;;4.03;1.23;;;;;;;19.27;67.32;98871.56;5111257;28;20195;-79
2022/06/01 10:51:08;;;;;;;2.67;0.87;;;;;;;18.97;70.56;98866.69;5111444;28;20187;-78
2022/06/01 10:53:58;;;;;;;1.90;0.90;;;;;;;18.92;78.69;98871.72;5113462;28;20215;-78
2022/06/01 10:56:27;;;;;;;1.10;0.90;;;;;;;19.16;81.84;98872.69;5115948;27;20195;-78
2022/06/01 10:58:59;;;;;;;1.63;0.83;;;;;;;19.15;71.84;98889.78;5113475;28;20274;-78
2022/06/01 11:01:42;;;;;;;1.90;0.93;;;;;;;19.27;64.62;98884.13;5112929;28;20195;-79
2022/06/01 11:04:59;;;;;;;3.10;1.00;;;;;;;19.81;61.54;98871.31;5113352;28;20199;-79
2022/06/01 11:07:50;;;;;;;2.50;1.00;;;;;;;18.58;57.43;98875.13;5111294;28;20199;-79
2022/06/01 11:10:28;;;;;;;1.00;0.80;;;;;;;19.72;60.75;98867.75;5104719;28;20206;-79
2022/06/01 11:13:13;;;;;;;0.90;0.63;;;;;;;20.38;62.11;98860.63;5110034;28;20685;-78
2022/06/01 11:15:56;;;;;;;2.60;0.77;;;;;;;20.60;59.99;98872.59;5112596;28;20190;-78
2022/06/01 11:18:42;;;;;;;2.67;0.90;;;;;;;20.61;63.67;98860.81;5106267;28;20594;-78
2022/06/01 11:21:21;;;;;;;2.63;0.83;;;;;;;21.13;58.55;98858.53;5109959;27;20646;-79
2022/06/01 11:24:03;;;;;;;2.25;0.90;;;;;;;21.43;59.17;98855.09;5109712;28;20195;-79
2022/06/01 11:27:14;;;;;;;1.30;1.00;;;;;;;20.99;60.33;98857.38;5113635;28;20251;-79
2022/06/01 11:30:02;;;;;;;2.13;1.00;;;;;;;19.85;63.72;98862.72;5112777;28;20234;-78
2022/06/01 11:32:38;;;;;;;5.27;1.47;;;;;;;20.49;67.34;98865.69;5107892;28;20215;-78
2022/06/01 11:35:15;;;;;;;1.93;0.80;;;;;;;20.62;60.75;98873.25;5113501;28;20198;-78
2022/06/01 11:37:50;;;;;;;1.47;0.87;;;;;;;20.71;61.97;98861.47;5110723;28;20194;-79
2022/06/01 11:40:37;;;;;;;0.80;0.80;;;;;;;20.86;60.79;98849.00;5111795;28;20198;-78
2022/06/01 11:43:14;;;;;;;2.73;0.83;;;;;;;21.29;63.01;98853.13;5110999;28;20195;-78
2022/06/01 11:45:46;;;;;;;1.00;0.90;;;;;;;21.05;61.00;98851.31;5111595;28;20232;-78
2022/06/01 11:48:21;;;;;;;2.40;0.70;;;;;;;20.79;58.62;98861.47;5115499;28;20207;-79
2022/06/01 11:51:03;;;;;;;1.13;0.67;;;;;;;20.51;52.61;98853.75;5108577;28;20202;-79
2022/06/01 11:53:35;;;;;;;2.50;0.77;;;;;;;20.88;54.85;98865.84;5107425;28;20218;-79
2022/06/01 11:56:15;;;;;;;0.70;0.60;;;;;;;20.02;56.41;98851.00;5112633;28;20250;-78
2022/06/01 11:58:56;;;;;;;2.57;0.80;;;;;;;20.73;53.72;98849.53;5113315;28;20677;-79
2022/06/01 12:01:35;;;;;;;1.10;0.60;;;;;;;20.41;55.51;98861.13;5112375;28;20199;-78
2022/06/01 12:04:20;;;;;;;2.23;0.73;;;;;;;19.90;58.22;98864.94;5110332;28;20195;-78
2022/06/01 12:06:58;;;;;;;1.90;0.70;;;;;;;19.75;59.46;98861.19;5113352;28;20708;-78
2022/06/01 12:09:38;;;;;;;1.00;0.70;;;;;;;20.43;58.50;98855.59;5110462;28;20326;-78
2022/06/01 12:12:08;;;;;;;1.87;0.90;;;;;;;19.70;61.52;98859.84;5112694;28;20202;-79
2022/06/01 12:14:40;;;;;;;1.30;0.70;;;;;;;20.02;59.96;98853.69;5109167;28;20230;-79